sensor_id;sensor_type;location;lat;lon;timestamp;temperature;humidity
76787;DHT22;65739;51.482;5.702;2023-05-07T00:01:13;13.90;99.90
76787;DHT22;65739;51.482;5.702;2023-05-07T00:03:39;13.90;99.90
76787;DHT22;65739;51.482;5.702;2023-05-07T00:06:04;14.00;99.90
76787;DHT22;65739;51.482;5.702;2023-05-07T00:08:30;14.00;99.90
76787;DHT22;65739;51.482;5.702;2023-05-07T00:10:55;14.00;99.90
76787;DHT22;65739;51.482;5.702;2023-05-07T00:13:21;14.10;99.90
76787;DHT22;65739;51.482;5.702;2023-05-07T00:15:47;14.00;99.90
76787;DHT22;65739;51.482;5.702;2023-05-07T00:18:12;14.00;99.90
76787;DHT22;65739;51.482;5.702;2023-05-07T00:20:38;14.10;99.90
76787;DHT22;65739;51.482;5.702;2023-05-07T00:23:03;14.10;99.90
76787;DHT22;65739;51.482;5.702;2023-05-07T00:25:29;14.10;99.90
76787;DHT22;65739;51.482;5.702;2023-05-07T00:27:54;14.10;99.90
76787;DHT22;65739;51.482;5.702;2023-05-07T00:30:20;14.10;99.90
76787;DHT22;65739;51.482;5.702;2023-05-07T00:32:46;14.10;99.90
76787;DHT22;65739;51.482;5.702;2023-05-07T00:35:11;14.10;99.90
76787;DHT22;65739;51.482;5.702;2023-05-07T00:37:37;14.10;99.90
76787;DHT22;65739;51.482;5.702;2023-05-07T00:40:03;14.00;99.90
76787;DHT22;65739;51.482;5.702;2023-05-07T00:42:32;14.00;99.90
76787;DHT22;65739;51.482;5.702;2023-05-07T00:44:58;14.00;99.90
76787;DHT22;65739;51.482;5.702;2023-05-07T00:47:25;14.00;99.90
76787;DHT22;65739;51.482;5.702;2023-05-07T00:49:51;13.90;99.90
76787;DHT22;65739;51.482;5.702;2023-05-07T00:52:17;13.90;99.90
76787;DHT22;65739;51.482;5.702;2023-05-07T00:54:45;13.90;99.90
76787;DHT22;65739;51.482;5.702;2023-05-07T00:57:10;13.80;99.90
76787;DHT22;65739;51.482;5.702;2023-05-07T00:59:39;13.80;99.90
76787;DHT22;65739;51.482;5.702;2023-05-07T01:02:06;13.80;99.90
76787;DHT22;65739;51.482;5.702;2023-05-07T01:04:32;13.80;99.90
76787;DHT22;65739;51.482;5.702;2023-05-07T01:06:58;13.70;99.90
76787;DHT22;65739;51.482;5.702;2023-05-07T01:09:25;13.70;99.90
76787;DHT22;65739;51.482;5.702;2023-05-07T01:11:51;13.70;99.90
76787;DHT22;65739;51.482;5.702;2023-05-07T01:14:18;13.70;99.90
76787;DHT22;65739;51.482;5.702;2023-05-07T01:16:44;13.70;99.90
76787;DHT22;65739;51.482;5.702;2023-05-07T01:19:11;13.80;99.90
76787;DHT22;65739;51.482;5.702;2023-05-07T01:21:39;13.80;99.90
76787;DHT22;65739;51.482;5.702;2023-05-07T01:24:09;13.80;99.90
76787;DHT22;65739;51.482;5.702;2023-05-07T01:26:35;13.80;99.90
76787;DHT22;65739;51.482;5.702;2023-05-07T01:29:00;13.80;99.90
76787;DHT22;65739;51.482;5.702;2023-05-07T01:31:26;13.80;99.90
76787;DHT22;65739;51.482;5.702;2023-05-07T01:33:52;13.80;99.90
76787;DHT22;65739;51.482;5.702;2023-05-07T01:36:20;13.90;99.90
76787;DHT22;65739;51.482;5.702;2023-05-07T01:38:46;13.80;99.90
76787;DHT22;65739;51.482;5.702;2023-05-07T01:41:12;13.80;99.90
76787;DHT22;65739;51.482;5.702;2023-05-07T01:43:40;13.80;99.90
76787;DHT22;65739;51.482;5.702;2023-05-07T01:46:07;13.80;99.90
76787;DHT22;65739;51.482;5.702;2023-05-07T01:48:35;13.80;99.90
76787;DHT22;65739;51.482;5.702;2023-05-07T01:51:01;13.80;99.90
76787;DHT22;65739;51.482;5.702;2023-05-07T01:53:27;13.80;99.90
76787;DHT22;65739;51.482;5.702;2023-05-07T01:55:53;13.80;99.90
76787;DHT22;65739;51.482;5.702;2023-05-07T01:58:19;13.80;99.90
76787;DHT22;65739;51.482;5.702;2023-05-07T02:00:44;13.80;99.90
76787;DHT22;65739;51.482;5.702;2023-05-07T02:03:10;13.80;99.90
76787;DHT22;65739;51.482;5.702;2023-05-07T02:05:35;13.80;99.90
76787;DHT22;65739;51.482;5.702;2023-05-07T02:08:01;13.80;99.90
76787;DHT22;65739;51.482;5.702;2023-05-07T02:10:26;13.80;99.90
76787;DHT22;65739;51.482;5.702;2023-05-07T02:12:52;13.80;99.90
76787;DHT22;65739;51.482;5.702;2023-05-07T02:15:18;13.80;99.90
76787;DHT22;65739;51.482;5.702;2023-05-07T02:18:07;13.80;99.90
76787;DHT22;65739;51.482;5.702;2023-05-07T02:20:33;13.80;99.90
76787;DHT22;65739;51.482;5.702;2023-05-07T02:22:58;13.80;99.90
76787;DHT22;65739;51.482;5.702;2023-05-07T02:25:24;13.70;99.90
76787;DHT22;65739;51.482;5.702;2023-05-07T02:27:50;13.70;99.90
76787;DHT22;65739;51.482;5.702;2023-05-07T02:30:15;13.70;99.90
76787;DHT22;65739;51.482;5.702;2023-05-07T02:32:41;13.70;99.90
76787;DHT22;65739;51.482;5.702;2023-05-07T02:35:07;13.60;99.90
76787;DHT22;65739;51.482;5.702;2023-05-07T02:37:32;13.70;99.90
76787;DHT22;65739;51.482;5.702;2023-05-07T02:39:58;13.60;99.90
76787;DHT22;65739;51.482;5.702;2023-05-07T02:42:23;13.70;99.90
76787;DHT22;65739;51.482;5.702;2023-05-07T02:44:49;13.70;99.90
76787;DHT22;65739;51.482;5.702;2023-05-07T02:47:15;13.60;99.90
76787;DHT22;65739;51.482;5.702;2023-05-07T02:49:41;13.60;99.90
76787;DHT22;65739;51.482;5.702;2023-05-07T02:52:06;13.60;99.90
76787;DHT22;65739;51.482;5.702;2023-05-07T02:54:32;13.70;99.90
76787;DHT22;65739;51.482;5.702;2023-05-07T02:56:58;13.60;99.90
76787;DHT22;65739;51.482;5.702;2023-05-07T02:59:24;13.60;99.90
76787;DHT22;65739;51.482;5.702;2023-05-07T03:01:51;13.60;99.90
76787;DHT22;65739;51.482;5.702;2023-05-07T03:04:16;13.60;99.90
76787;DHT22;65739;51.482;5.702;2023-05-07T03:06:42;13.60;99.90
76787;DHT22;65739;51.482;5.702;2023-05-07T03:09:11;13.60;99.90
76787;DHT22;65739;51.482;5.702;2023-05-07T03:11:36;13.50;99.90
76787;DHT22;65739;51.482;5.702;2023-05-07T03:14:02;13.50;99.90
76787;DHT22;65739;51.482;5.702;2023-05-07T03:16:28;13.50;99.90
76787;DHT22;65739;51.482;5.702;2023-05-07T03:18:53;13.50;99.90
76787;DHT22;65739;51.482;5.702;2023-05-07T03:21:19;13.60;99.90
76787;DHT22;65739;51.482;5.702;2023-05-07T03:23:45;13.50;99.90
76787;DHT22;65739;51.482;5.702;2023-05-07T03:26:10;13.90;99.90
76787;DHT22;65739;51.482;5.702;2023-05-07T03:28:36;13.50;99.90
76787;DHT22;65739;51.482;5.702;2023-05-07T03:31:02;13.60;99.90
76787;DHT22;65739;51.482;5.702;2023-05-07T03:33:27;13.60;99.90
76787;DHT22;65739;51.482;5.702;2023-05-07T03:35:53;13.60;99.90
76787;DHT22;65739;51.482;5.702;2023-05-07T03:38:19;13.60;99.90
76787;DHT22;65739;51.482;5.702;2023-05-07T03:40:44;13.60;99.90
76787;DHT22;65739;51.482;5.702;2023-05-07T03:43:10;13.60;99.90
76787;DHT22;65739;51.482;5.702;2023-05-07T03:45:35;13.60;99.90
76787;DHT22;65739;51.482;5.702;2023-05-07T03:48:01;13.60;99.90
76787;DHT22;65739;51.482;5.702;2023-05-07T03:50:26;13.60;99.90
76787;DHT22;65739;51.482;5.702;2023-05-07T03:52:52;13.60;99.90
76787;DHT22;65739;51.482;5.702;2023-05-07T03:55:18;13.60;99.90
76787;DHT22;65739;51.482;5.702;2023-05-07T03:57:43;13.60;99.90
76787;DHT22;65739;51.482;5.702;2023-05-07T04:00:09;13.60;99.90
76787;DHT22;65739;51.482;5.702;2023-05-07T04:02:35;13.60;99.90
76787;DHT22;65739;51.482;5.702;2023-05-07T04:05:00;13.60;99.90
76787;DHT22;65739;51.482;5.702;2023-05-07T04:07:26;13.60;99.90
76787;DHT22;65739;51.482;5.702;2023-05-07T04:09:52;13.60;99.90
76787;DHT22;65739;51.482;5.702;2023-05-07T04:12:17;13.60;99.90
76787;DHT22;65739;51.482;5.702;2023-05-07T04:14:43;13.60;99.90
76787;DHT22;65739;51.482;5.702;2023-05-07T04:17:08;13.60;99.90
76787;DHT22;65739;51.482;5.702;2023-05-07T04:19:36;13.60;99.90
76787;DHT22;65739;51.482;5.702;2023-05-07T04:22:01;13.70;99.90
76787;DHT22;65739;51.482;5.702;2023-05-07T04:24:27;13.70;99.90
76787;DHT22;65739;51.482;5.702;2023-05-07T04:26:52;13.70;99.90
76787;DHT22;65739;51.482;5.702;2023-05-07T04:29:18;13.70;99.90
76787;DHT22;65739;51.482;5.702;2023-05-07T04:31:44;13.70;99.90
76787;DHT22;65739;51.482;5.702;2023-05-07T04:34:10;13.80;99.90
76787;DHT22;65739;51.482;5.702;2023-05-07T04:36:39;13.80;99.90
76787;DHT22;65739;51.482;5.702;2023-05-07T04:39:05;13.80;99.90
76787;DHT22;65739;51.482;5.702;2023-05-07T04:41:32;13.90;99.90
76787;DHT22;65739;51.482;5.702;2023-05-07T04:43:57;13.90;99.90
76787;DHT22;65739;51.482;5.702;2023-05-07T04:46:24;13.90;99.90
76787;DHT22;65739;51.482;5.702;2023-05-07T04:48:50;14.00;99.90
76787;DHT22;65739;51.482;5.702;2023-05-07T04:51:15;14.00;99.90
76787;DHT22;65739;51.482;5.702;2023-05-07T04:53:41;14.00;99.90
76787;DHT22;65739;51.482;5.702;2023-05-07T04:56:08;14.10;99.90
76787;DHT22;65739;51.482;5.702;2023-05-07T04:58:34;14.20;99.90
76787;DHT22;65739;51.482;5.702;2023-05-07T05:00:59;14.20;99.90
76787;DHT22;65739;51.482;5.702;2023-05-07T05:03:25;14.20;99.90
76787;DHT22;65739;51.482;5.702;2023-05-07T05:05:51;14.30;99.90
76787;DHT22;65739;51.482;5.702;2023-05-07T05:08:17;14.30;99.90
76787;DHT22;65739;51.482;5.702;2023-05-07T05:10:43;14.30;99.90
76787;DHT22;65739;51.482;5.702;2023-05-07T05:13:09;14.50;99.90
76787;DHT22;65739;51.482;5.702;2023-05-07T05:15:35;14.50;99.90
76787;DHT22;65739;51.482;5.702;2023-05-07T05:18:01;14.40;99.90
76787;DHT22;65739;51.482;5.702;2023-05-07T05:20:26;14.40;99.90
76787;DHT22;65739;51.482;5.702;2023-05-07T05:22:52;14.50;99.90
76787;DHT22;65739;51.482;5.702;2023-05-07T05:25:20;14.50;99.90
76787;DHT22;65739;51.482;5.702;2023-05-07T05:27:46;14.50;99.90
76787;DHT22;65739;51.482;5.702;2023-05-07T05:30:12;14.50;99.90
76787;DHT22;65739;51.482;5.702;2023-05-07T05:32:41;14.60;99.90
76787;DHT22;65739;51.482;5.702;2023-05-07T05:35:07;14.60;99.90
76787;DHT22;65739;51.482;5.702;2023-05-07T05:37:32;14.70;99.90
76787;DHT22;65739;51.482;5.702;2023-05-07T05:39:58;14.70;99.90
76787;DHT22;65739;51.482;5.702;2023-05-07T05:42:23;14.80;99.90
76787;DHT22;65739;51.482;5.702;2023-05-07T05:44:49;14.90;99.90
76787;DHT22;65739;51.482;5.702;2023-05-07T05:47:17;14.90;99.90
76787;DHT22;65739;51.482;5.702;2023-05-07T05:49:43;15.00;99.90
76787;DHT22;65739;51.482;5.702;2023-05-07T05:52:09;15.10;99.90
76787;DHT22;65739;51.482;5.702;2023-05-07T05:54:35;15.20;99.90
76787;DHT22;65739;51.482;5.702;2023-05-07T05:57:03;15.20;99.90
76787;DHT22;65739;51.482;5.702;2023-05-07T05:59:30;15.40;99.90
76787;DHT22;65739;51.482;5.702;2023-05-07T06:01:55;15.50;99.90
76787;DHT22;65739;51.482;5.702;2023-05-07T06:04:21;15.50;99.90
76787;DHT22;65739;51.482;5.702;2023-05-07T06:06:46;15.40;99.90
76787;DHT22;65739;51.482;5.702;2023-05-07T06:09:12;15.40;99.90
76787;DHT22;65739;51.482;5.702;2023-05-07T06:11:38;15.50;99.90
76787;DHT22;65739;51.482;5.702;2023-05-07T06:14:06;15.50;99.90
76787;DHT22;65739;51.482;5.702;2023-05-07T06:16:32;15.60;99.90
76787;DHT22;65739;51.482;5.702;2023-05-07T06:18:57;15.60;99.90
76787;DHT22;65739;51.482;5.702;2023-05-07T06:21:23;15.70;99.90
76787;DHT22;65739;51.482;5.702;2023-05-07T06:23:48;15.70;99.90
76787;DHT22;65739;51.482;5.702;2023-05-07T06:26:14;15.80;99.90
76787;DHT22;65739;51.482;5.702;2023-05-07T06:28:39;15.90;99.90
76787;DHT22;65739;51.482;5.702;2023-05-07T06:33:38;16.30;99.90
76787;DHT22;65739;51.482;5.702;2023-05-07T06:36:04;16.30;99.90
76787;DHT22;65739;51.482;5.702;2023-05-07T06:38:30;16.40;99.90
76787;DHT22;65739;51.482;5.702;2023-05-07T06:40:56;16.50;99.90
76787;DHT22;65739;51.482;5.702;2023-05-07T06:43:22;16.60;99.90
76787;DHT22;65739;51.482;5.702;2023-05-07T06:45:48;16.50;99.90
76787;DHT22;65739;51.482;5.702;2023-05-07T06:48:13;16.50;99.90
76787;DHT22;65739;51.482;5.702;2023-05-07T06:50:39;16.40;99.90
76787;DHT22;65739;51.482;5.702;2023-05-07T06:53:05;16.50;99.90
76787;DHT22;65739;51.482;5.702;2023-05-07T06:55:30;16.50;99.90
76787;DHT22;65739;51.482;5.702;2023-05-07T06:57:56;16.50;99.90
76787;DHT22;65739;51.482;5.702;2023-05-07T07:00:23;16.70;99.90
76787;DHT22;65739;51.482;5.702;2023-05-07T07:02:49;16.80;99.90
76787;DHT22;65739;51.482;5.702;2023-05-07T07:05:14;16.70;99.90
76787;DHT22;65739;51.482;5.702;2023-05-07T07:07:40;16.90;99.90
76787;DHT22;65739;51.482;5.702;2023-05-07T07:10:06;16.90;99.90
76787;DHT22;65739;51.482;5.702;2023-05-07T07:12:32;17.10;99.90
76787;DHT22;65739;51.482;5.702;2023-05-07T07:14:57;17.10;99.90
76787;DHT22;65739;51.482;5.702;2023-05-07T07:17:23;17.00;99.90
76787;DHT22;65739;51.482;5.702;2023-05-07T07:19:48;17.20;99.90
76787;DHT22;65739;51.482;5.702;2023-05-07T07:22:14;17.20;99.90
76787;DHT22;65739;51.482;5.702;2023-05-07T07:24:39;17.30;99.90
76787;DHT22;65739;51.482;5.702;2023-05-07T07:27:05;17.30;99.90
76787;DHT22;65739;51.482;5.702;2023-05-07T07:29:30;17.30;99.90
76787;DHT22;65739;51.482;5.702;2023-05-07T07:31:56;17.30;99.90
76787;DHT22;65739;51.482;5.702;2023-05-07T07:34:22;17.20;99.90
76787;DHT22;65739;51.482;5.702;2023-05-07T07:36:47;17.10;99.90
76787;DHT22;65739;51.482;5.702;2023-05-07T07:39:13;17.20;99.90
76787;DHT22;65739;51.482;5.702;2023-05-07T07:41:39;17.00;99.90
76787;DHT22;65739;51.482;5.702;2023-05-07T07:44:04;17.00;99.90
76787;DHT22;65739;51.482;5.702;2023-05-07T07:46:32;17.00;99.90
76787;DHT22;65739;51.482;5.702;2023-05-07T07:48:58;17.00;99.90
76787;DHT22;65739;51.482;5.702;2023-05-07T07:51:25;17.20;99.90
76787;DHT22;65739;51.482;5.702;2023-05-07T07:53:54;17.20;99.90
76787;DHT22;65739;51.482;5.702;2023-05-07T07:56:20;17.10;99.90
76787;DHT22;65739;51.482;5.702;2023-05-07T07:58:45;17.10;99.90
76787;DHT22;65739;51.482;5.702;2023-05-07T08:01:11;17.40;99.90
76787;DHT22;65739;51.482;5.702;2023-05-07T08:03:38;17.60;99.90
76787;DHT22;65739;51.482;5.702;2023-05-07T08:06:03;17.80;99.90
76787;DHT22;65739;51.482;5.702;2023-05-07T08:08:29;17.80;99.90
76787;DHT22;65739;51.482;5.702;2023-05-07T08:10:55;18.00;99.90
76787;DHT22;65739;51.482;5.702;2023-05-07T08:13:20;18.20;99.90
76787;DHT22;65739;51.482;5.702;2023-05-07T08:15:46;18.40;99.90
76787;DHT22;65739;51.482;5.702;2023-05-07T08:18:11;18.70;99.90
76787;DHT22;65739;51.482;5.702;2023-05-07T08:20:37;18.80;99.90
76787;DHT22;65739;51.482;5.702;2023-05-07T08:23:05;18.60;99.90
76787;DHT22;65739;51.482;5.702;2023-05-07T08:25:33;18.70;99.90
76787;DHT22;65739;51.482;5.702;2023-05-07T08:27:59;18.80;99.90
76787;DHT22;65739;51.482;5.702;2023-05-07T08:30:24;18.80;99.90
76787;DHT22;65739;51.482;5.702;2023-05-07T08:32:50;19.00;99.90
76787;DHT22;65739;51.482;5.702;2023-05-07T08:35:15;19.00;99.90
76787;DHT22;65739;51.482;5.702;2023-05-07T08:37:41;19.00;99.90
76787;DHT22;65739;51.482;5.702;2023-05-07T08:40:07;19.10;99.90
76787;DHT22;65739;51.482;5.702;2023-05-07T08:42:35;19.10;99.90
76787;DHT22;65739;51.482;5.702;2023-05-07T08:45:02;19.30;99.90
76787;DHT22;65739;51.482;5.702;2023-05-07T08:47:42;19.10;99.90
76787;DHT22;65739;51.482;5.702;2023-05-07T08:50:10;19.20;99.90
76787;DHT22;65739;51.482;5.702;2023-05-07T08:52:35;19.30;99.90
76787;DHT22;65739;51.482;5.702;2023-05-07T08:55:02;19.60;99.90
76787;DHT22;65739;51.482;5.702;2023-05-07T08:57:28;19.60;99.90
76787;DHT22;65739;51.482;5.702;2023-05-07T08:59:54;19.50;99.90
76787;DHT22;65739;51.482;5.702;2023-05-07T09:02:20;19.50;99.90
76787;DHT22;65739;51.482;5.702;2023-05-07T09:04:46;19.80;99.90
76787;DHT22;65739;51.482;5.702;2023-05-07T09:07:11;20.10;99.90
76787;DHT22;65739;51.482;5.702;2023-05-07T09:09:37;19.90;99.90
76787;DHT22;65739;51.482;5.702;2023-05-07T09:12:03;20.40;99.90
76787;DHT22;65739;51.482;5.702;2023-05-07T09:14:29;20.50;99.90
76787;DHT22;65739;51.482;5.702;2023-05-07T09:16:56;20.60;99.90
76787;DHT22;65739;51.482;5.702;2023-05-07T09:19:25;20.90;99.90
76787;DHT22;65739;51.482;5.702;2023-05-07T09:21:58;20.70;99.90
76787;DHT22;65739;51.482;5.702;2023-05-07T09:24:25;20.90;99.90
76787;DHT22;65739;51.482;5.702;2023-05-07T09:26:50;20.80;99.90
76787;DHT22;65739;51.482;5.702;2023-05-07T09:29:16;20.60;99.90
76787;DHT22;65739;51.482;5.702;2023-05-07T09:31:42;20.60;99.90
76787;DHT22;65739;51.482;5.702;2023-05-07T09:34:08;20.60;99.90
76787;DHT22;65739;51.482;5.702;2023-05-07T09:36:33;20.80;99.90
76787;DHT22;65739;51.482;5.702;2023-05-07T09:39:00;20.90;99.90
76787;DHT22;65739;51.482;5.702;2023-05-07T09:41:26;20.50;99.90
76787;DHT22;65739;51.482;5.702;2023-05-07T09:43:55;20.70;99.90
76787;DHT22;65739;51.482;5.702;2023-05-07T09:46:27;20.70;99.90
76787;DHT22;65739;51.482;5.702;2023-05-07T09:48:57;20.80;99.90
76787;DHT22;65739;51.482;5.702;2023-05-07T09:51:29;21.10;99.90
76787;DHT22;65739;51.482;5.702;2023-05-07T09:53:57;20.90;99.90
76787;DHT22;65739;51.482;5.702;2023-05-07T09:56:25;20.90;99.90
76787;DHT22;65739;51.482;5.702;2023-05-07T09:58:54;21.30;99.90
76787;DHT22;65739;51.482;5.702;2023-05-07T10:01:21;21.30;99.90
76787;DHT22;65739;51.482;5.702;2023-05-07T10:03:48;21.20;99.90
76787;DHT22;65739;51.482;5.702;2023-05-07T10:06:15;21.30;99.90
76787;DHT22;65739;51.482;5.702;2023-05-07T10:08:42;21.60;99.90
76787;DHT22;65739;51.482;5.702;2023-05-07T10:11:12;21.90;99.90
76787;DHT22;65739;51.482;5.702;2023-05-07T10:13:39;22.20;99.90
76787;DHT22;65739;51.482;5.702;2023-05-07T10:16:05;22.20;99.90
76787;DHT22;65739;51.482;5.702;2023-05-07T10:18:31;22.30;99.90
76787;DHT22;65739;51.482;5.702;2023-05-07T10:21:06;22.20;99.90
76787;DHT22;65739;51.482;5.702;2023-05-07T10:23:33;22.40;99.90
76787;DHT22;65739;51.482;5.702;2023-05-07T10:26:05;22.50;99.90
76787;DHT22;65739;51.482;5.702;2023-05-07T10:28:36;22.40;99.90
76787;DHT22;65739;51.482;5.702;2023-05-07T10:34:10;22.30;99.90
76787;DHT22;65739;51.482;5.702;2023-05-07T10:36:36;22.30;99.90
76787;DHT22;65739;51.482;5.702;2023-05-07T10:39:02;22.30;99.90
76787;DHT22;65739;51.482;5.702;2023-05-07T10:41:28;22.60;99.90
76787;DHT22;65739;51.482;5.702;2023-05-07T10:43:53;22.70;99.90
76787;DHT22;65739;51.482;5.702;2023-05-07T10:46:22;22.90;99.90
76787;DHT22;65739;51.482;5.702;2023-05-07T10:51:27;23.10;99.90
76787;DHT22;65739;51.482;5.702;2023-05-07T10:56:39;23.80;99.90
76787;DHT22;65739;51.482;5.702;2023-05-07T11:01:59;24.10;99.90
76787;DHT22;65739;51.482;5.702;2023-05-07T11:04:25;24.40;99.90
76787;DHT22;65739;51.482;5.702;2023-05-07T11:15:10;24.70;99.90
76787;DHT22;65739;51.482;5.702;2023-05-07T11:17:58;24.80;99.90
76787;DHT22;65739;51.482;5.702;2023-05-07T11:23:54;24.40;99.90
76787;DHT22;65739;51.482;5.702;2023-05-07T11:26:16;24.30;99.90
76787;DHT22;65739;51.482;5.702;2023-05-07T11:28:42;23.80;99.90
76787;DHT22;65739;51.482;5.702;2023-05-07T11:31:09;23.40;99.90
76787;DHT22;65739;51.482;5.702;2023-05-07T11:33:36;23.40;99.90
76787;DHT22;65739;51.482;5.702;2023-05-07T11:36:05;23.30;99.90
76787;DHT22;65739;51.482;5.702;2023-05-07T11:38:37;23.00;99.90
76787;DHT22;65739;51.482;5.702;2023-05-07T11:41:03;22.90;99.90
76787;DHT22;65739;51.482;5.702;2023-05-07T11:43:31;23.10;99.90
76787;DHT22;65739;51.482;5.702;2023-05-07T11:46:11;23.00;99.90
76787;DHT22;65739;51.482;5.702;2023-05-07T11:48:38;23.10;99.90
76787;DHT22;65739;51.482;5.702;2023-05-07T11:51:07;22.80;99.90
76787;DHT22;65739;51.482;5.702;2023-05-07T11:53:42;22.80;99.90
76787;DHT22;65739;51.482;5.702;2023-05-07T11:56:12;23.10;99.90
76787;DHT22;65739;51.482;5.702;2023-05-07T11:58:39;22.90;99.90
76787;DHT22;65739;51.482;5.702;2023-05-07T12:01:07;23.00;99.90
76787;DHT22;65739;51.482;5.702;2023-05-07T12:03:34;22.90;99.90
76787;DHT22;65739;51.482;5.702;2023-05-07T12:06:00;22.80;99.90
76787;DHT22;65739;51.482;5.702;2023-05-07T12:08:25;22.60;99.90
76787;DHT22;65739;51.482;5.702;2023-05-07T12:10:51;22.80;99.90
76787;DHT22;65739;51.482;5.702;2023-05-07T12:13:22;23.00;99.90
76787;DHT22;65739;51.482;5.702;2023-05-07T12:15:55;22.70;99.90
76787;DHT22;65739;51.482;5.702;2023-05-07T12:18:21;22.80;99.90
76787;DHT22;65739;51.482;5.702;2023-05-07T12:20:47;22.70;99.90
76787;DHT22;65739;51.482;5.702;2023-05-07T12:23:13;22.50;99.90
76787;DHT22;65739;51.482;5.702;2023-05-07T12:25:40;22.60;99.90
76787;DHT22;65739;51.482;5.702;2023-05-07T12:28:08;22.60;99.90
76787;DHT22;65739;51.482;5.702;2023-05-07T12:30:39;22.60;99.90
76787;DHT22;65739;51.482;5.702;2023-05-07T12:33:04;22.30;99.90
76787;DHT22;65739;51.482;5.702;2023-05-07T12:35:32;22.40;99.90
76787;DHT22;65739;51.482;5.702;2023-05-07T12:37:58;22.30;99.90
76787;DHT22;65739;51.482;5.702;2023-05-07T12:43:03;22.00;99.90
76787;DHT22;65739;51.482;5.702;2023-05-07T12:45:28;22.00;99.90
76787;DHT22;65739;51.482;5.702;2023-05-07T12:47:54;21.80;99.90
76787;DHT22;65739;51.482;5.702;2023-05-07T12:50:19;21.70;99.90
76787;DHT22;65739;51.482;5.702;2023-05-07T12:52:47;21.50;99.90
76787;DHT22;65739;51.482;5.702;2023-05-07T12:55:17;21.30;99.90
76787;DHT22;65739;51.482;5.702;2023-05-07T12:57:47;21.20;99.90
76787;DHT22;65739;51.482;5.702;2023-05-07T13:00:13;21.20;99.90
76787;DHT22;65739;51.482;5.702;2023-05-07T13:02:41;21.10;99.90
76787;DHT22;65739;51.482;5.702;2023-05-07T13:05:09;21.10;99.90
76787;DHT22;65739;51.482;5.702;2023-05-07T13:07:35;20.90;99.90
76787;DHT22;65739;51.482;5.702;2023-05-07T13:10:02;20.30;99.90
76787;DHT22;65739;51.482;5.702;2023-05-07T13:12:28;19.60;99.90
76787;DHT22;65739;51.482;5.702;2023-05-07T13:14:53;19.20;99.90
76787;DHT22;65739;51.482;5.702;2023-05-07T13:17:19;18.70;99.90
76787;DHT22;65739;51.482;5.702;2023-05-07T13:19:45;18.50;99.90
76787;DHT22;65739;51.482;5.702;2023-05-07T13:22:10;18.00;99.90
76787;DHT22;65739;51.482;5.702;2023-05-07T13:24:36;17.90;99.90
76787;DHT22;65739;51.482;5.702;2023-05-07T13:27:02;17.60;99.90
76787;DHT22;65739;51.482;5.702;2023-05-07T13:29:28;17.30;99.90
76787;DHT22;65739;51.482;5.702;2023-05-07T13:31:56;17.00;99.90
76787;DHT22;65739;51.482;5.702;2023-05-07T13:34:22;16.70;99.90
76787;DHT22;65739;51.482;5.702;2023-05-07T13:36:47;16.50;99.90
76787;DHT22;65739;51.482;5.702;2023-05-07T13:39:13;16.50;99.90
76787;DHT22;65739;51.482;5.702;2023-05-07T13:41:38;16.30;99.90
76787;DHT22;65739;51.482;5.702;2023-05-07T13:44:04;16.20;99.90
76787;DHT22;65739;51.482;5.702;2023-05-07T13:46:30;16.00;99.90
76787;DHT22;65739;51.482;5.702;2023-05-07T13:48:55;15.90;99.90
76787;DHT22;65739;51.482;5.702;2023-05-07T13:51:21;15.80;99.90
76787;DHT22;65739;51.482;5.702;2023-05-07T13:53:47;15.90;99.90
76787;DHT22;65739;51.482;5.702;2023-05-07T13:56:14;15.90;99.90
76787;DHT22;65739;51.482;5.702;2023-05-07T13:58:40;15.90;99.90
76787;DHT22;65739;51.482;5.702;2023-05-07T14:01:05;15.90;99.90
76787;DHT22;65739;51.482;5.702;2023-05-07T14:03:31;16.00;99.90
76787;DHT22;65739;51.482;5.702;2023-05-07T14:05:59;16.00;99.90
76787;DHT22;65739;51.482;5.702;2023-05-07T14:08:25;16.10;99.90
76787;DHT22;65739;51.482;5.702;2023-05-07T14:10:51;16.10;99.90
76787;DHT22;65739;51.482;5.702;2023-05-07T14:13:17;16.00;99.90
76787;DHT22;65739;51.482;5.702;2023-05-07T14:15:42;16.00;99.90
76787;DHT22;65739;51.482;5.702;2023-05-07T14:18:15;16.00;99.90
76787;DHT22;65739;51.482;5.702;2023-05-07T14:20:41;16.00;99.90
76787;DHT22;65739;51.482;5.702;2023-05-07T14:23:08;15.90;99.90
76787;DHT22;65739;51.482;5.702;2023-05-07T14:25:34;15.90;99.90
76787;DHT22;65739;51.482;5.702;2023-05-07T14:27:59;15.90;99.90
76787;DHT22;65739;51.482;5.702;2023-05-07T14:30:25;15.80;99.90
76787;DHT22;65739;51.482;5.702;2023-05-07T14:32:51;15.90;99.90
76787;DHT22;65739;51.482;5.702;2023-05-07T14:35:17;16.00;99.90
76787;DHT22;65739;51.482;5.702;2023-05-07T14:37:43;16.00;99.90
76787;DHT22;65739;51.482;5.702;2023-05-07T14:40:09;15.90;99.90
76787;DHT22;65739;51.482;5.702;2023-05-07T14:42:35;16.10;99.90
76787;DHT22;65739;51.482;5.702;2023-05-07T14:45:01;16.20;99.90
76787;DHT22;65739;51.482;5.702;2023-05-07T14:47:26;16.20;99.90
76787;DHT22;65739;51.482;5.702;2023-05-07T14:49:52;16.20;99.90
76787;DHT22;65739;51.482;5.702;2023-05-07T14:52:18;16.30;99.90
76787;DHT22;65739;51.482;5.702;2023-05-07T14:54:44;16.40;99.90
76787;DHT22;65739;51.482;5.702;2023-05-07T14:57:13;16.50;99.90
76787;DHT22;65739;51.482;5.702;2023-05-07T14:59:41;16.70;99.90
76787;DHT22;65739;51.482;5.702;2023-05-07T15:02:07;16.90;99.90
76787;DHT22;65739;51.482;5.702;2023-05-07T15:04:33;17.00;99.90
76787;DHT22;65739;51.482;5.702;2023-05-07T15:06:59;17.10;99.90
76787;DHT22;65739;51.482;5.702;2023-05-07T15:09:25;17.10;99.90
76787;DHT22;65739;51.482;5.702;2023-05-07T15:11:51;17.20;99.90
76787;DHT22;65739;51.482;5.702;2023-05-07T15:14:16;17.20;99.90
76787;DHT22;65739;51.482;5.702;2023-05-07T15:16:42;17.30;99.90
76787;DHT22;65739;51.482;5.702;2023-05-07T15:19:07;17.30;99.90
76787;DHT22;65739;51.482;5.702;2023-05-07T15:21:36;17.40;99.90
76787;DHT22;65739;51.482;5.702;2023-05-07T15:24:02;17.50;99.90
76787;DHT22;65739;51.482;5.702;2023-05-07T15:26:28;17.40;99.90
76787;DHT22;65739;51.482;5.702;2023-05-07T15:28:54;17.30;99.90
76787;DHT22;65739;51.482;5.702;2023-05-07T15:31:23;17.50;99.90
76787;DHT22;65739;51.482;5.702;2023-05-07T15:33:48;17.60;99.90
76787;DHT22;65739;51.482;5.702;2023-05-07T15:36:15;17.80;99.90
76787;DHT22;65739;51.482;5.702;2023-05-07T15:38:41;17.80;99.90
76787;DHT22;65739;51.482;5.702;2023-05-07T15:41:06;18.10;99.90
76787;DHT22;65739;51.482;5.702;2023-05-07T15:43:32;18.30;99.90
76787;DHT22;65739;51.482;5.702;2023-05-07T15:45:57;18.30;99.90
76787;DHT22;65739;51.482;5.702;2023-05-07T15:48:25;18.30;99.90
76787;DHT22;65739;51.482;5.702;2023-05-07T15:50:51;18.50;99.90
76787;DHT22;65739;51.482;5.702;2023-05-07T15:53:16;18.50;99.90